sensor_id;sensor_type;location;lat;lon;timestamp;temperature;humidity
18043;DHT22;9146;48.074;11.968;2022-11-15T00:02:12;2.70;99.90
18043;DHT22;9146;48.074;11.968;2022-11-15T00:04:39;2.70;99.90
18043;DHT22;9146;48.074;11.968;2022-11-15T00:07:08;2.70;99.90
18043;DHT22;9146;48.074;11.968;2022-11-15T00:09:34;2.70;99.90
18043;DHT22;9146;48.074;11.968;2022-11-15T00:12:01;2.70;99.90
18043;DHT22;9146;48.074;11.968;2022-11-15T00:14:28;2.70;99.90
18043;DHT22;9146;48.074;11.968;2022-11-15T00:16:55;2.70;99.90
18043;DHT22;9146;48.074;11.968;2022-11-15T00:19:22;2.70;99.90
18043;DHT22;9146;48.074;11.968;2022-11-15T00:21:49;2.70;99.90
18043;DHT22;9146;48.074;11.968;2022-11-15T00:24:17;2.80;99.90
18043;DHT22;9146;48.074;11.968;2022-11-15T00:26:44;2.80;99.90
18043;DHT22;9146;48.074;11.968;2022-11-15T00:29:11;2.80;99.90
18043;DHT22;9146;48.074;11.968;2022-11-15T00:31:38;2.70;99.90
18043;DHT22;9146;48.074;11.968;2022-11-15T00:34:05;2.60;99.90
18043;DHT22;9146;48.074;11.968;2022-11-15T00:36:33;2.50;99.90
18043;DHT22;9146;48.074;11.968;2022-11-15T00:39:00;2.40;99.90
18043;DHT22;9146;48.074;11.968;2022-11-15T00:41:29;2.40;99.90
18043;DHT22;9146;48.074;11.968;2022-11-15T00:43:56;2.40;99.90
18043;DHT22;9146;48.074;11.968;2022-11-15T00:46:23;2.30;99.90
18043;DHT22;9146;48.074;11.968;2022-11-15T00:48:50;2.30;99.90
18043;DHT22;9146;48.074;11.968;2022-11-15T00:51:17;2.30;99.90
18043;DHT22;9146;48.074;11.968;2022-11-15T00:53:43;2.30;99.90
18043;DHT22;9146;48.074;11.968;2022-11-15T00:56:10;2.30;99.90
18043;DHT22;9146;48.074;11.968;2022-11-15T00:58:39;2.30;99.90
18043;DHT22;9146;48.074;11.968;2022-11-15T01:01:08;2.30;99.90
18043;DHT22;9146;48.074;11.968;2022-11-15T01:03:35;2.30;99.90
18043;DHT22;9146;48.074;11.968;2022-11-15T01:06:03;2.30;99.90
18043;DHT22;9146;48.074;11.968;2022-11-15T01:08:30;2.40;99.90
18043;DHT22;9146;48.074;11.968;2022-11-15T01:11:00;2.40;99.90
18043;DHT22;9146;48.074;11.968;2022-11-15T01:13:30;2.40;99.90
18043;DHT22;9146;48.074;11.968;2022-11-15T01:15:58;2.50;99.90
18043;DHT22;9146;48.074;11.968;2022-11-15T01:18:25;2.50;99.90
18043;DHT22;9146;48.074;11.968;2022-11-15T01:20:52;2.50;99.90
18043;DHT22;9146;48.074;11.968;2022-11-15T01:23:19;2.50;99.90
18043;DHT22;9146;48.074;11.968;2022-11-15T01:25:46;2.60;99.90
18043;DHT22;9146;48.074;11.968;2022-11-15T01:28:13;2.60;99.90
18043;DHT22;9146;48.074;11.968;2022-11-15T01:30:40;2.70;99.90
18043;DHT22;9146;48.074;11.968;2022-11-15T01:33:08;2.80;99.90
18043;DHT22;9146;48.074;11.968;2022-11-15T01:35:38;2.90;99.90
18043;DHT22;9146;48.074;11.968;2022-11-15T01:38:06;3.10;99.90
18043;DHT22;9146;48.074;11.968;2022-11-15T01:40:33;3.20;99.90
18043;DHT22;9146;48.074;11.968;2022-11-15T01:43:22;3.30;99.90
18043;DHT22;9146;48.074;11.968;2022-11-15T01:45:52;3.40;99.90
18043;DHT22;9146;48.074;11.968;2022-11-15T01:48:22;3.40;99.90
18043;DHT22;9146;48.074;11.968;2022-11-15T01:50:52;3.40;99.90
18043;DHT22;9146;48.074;11.968;2022-11-15T01:53:21;3.40;99.90
18043;DHT22;9146;48.074;11.968;2022-11-15T01:55:50;3.50;99.90
18043;DHT22;9146;48.074;11.968;2022-11-15T01:58:16;3.60;99.90
18043;DHT22;9146;48.074;11.968;2022-11-15T02:00:43;3.70;99.90
18043;DHT22;9146;48.074;11.968;2022-11-15T02:03:10;3.70;99.90
18043;DHT22;9146;48.074;11.968;2022-11-15T02:05:40;3.70;99.90
18043;DHT22;9146;48.074;11.968;2022-11-15T02:08:08;3.70;99.90
18043;DHT22;9146;48.074;11.968;2022-11-15T02:10:45;3.80;99.90
18043;DHT22;9146;48.074;11.968;2022-11-15T02:13:13;3.80;99.90
18043;DHT22;9146;48.074;11.968;2022-11-15T02:15:44;3.70;99.90
18043;DHT22;9146;48.074;11.968;2022-11-15T02:18:22;3.70;99.90
18043;DHT22;9146;48.074;11.968;2022-11-15T02:21:15;3.70;99.90
18043;DHT22;9146;48.074;11.968;2022-11-15T02:24:09;3.80;99.90
18043;DHT22;9146;48.074;11.968;2022-11-15T02:27:04;3.70;99.90
18043;DHT22;9146;48.074;11.968;2022-11-15T02:30:02;3.70;99.90
18043;DHT22;9146;48.074;11.968;2022-11-15T02:32:36;3.70;99.90
18043;DHT22;9146;48.074;11.968;2022-11-15T02:35:13;3.60;99.90
18043;DHT22;9146;48.074;11.968;2022-11-15T02:37:46;3.60;99.90
18043;DHT22;9146;48.074;11.968;2022-11-15T02:40:26;3.50;99.90
18043;DHT22;9146;48.074;11.968;2022-11-15T02:42:55;3.50;99.90
18043;DHT22;9146;48.074;11.968;2022-11-15T02:45:45;3.40;99.90
18043;DHT22;9146;48.074;11.968;2022-11-15T02:48:16;3.40;99.90
18043;DHT22;9146;48.074;11.968;2022-11-15T02:50:44;3.40;99.90
18043;DHT22;9146;48.074;11.968;2022-11-15T02:53:11;3.40;99.90
18043;DHT22;9146;48.074;11.968;2022-11-15T02:55:41;3.50;99.90
18043;DHT22;9146;48.074;11.968;2022-11-15T03:01:09;3.60;99.90
18043;DHT22;9146;48.074;11.968;2022-11-15T03:03:55;3.60;99.90
18043;DHT22;9146;48.074;11.968;2022-11-15T03:06:32;3.70;99.90
18043;DHT22;9146;48.074;11.968;2022-11-15T03:09:09;3.80;99.90
18043;DHT22;9146;48.074;11.968;2022-11-15T03:11:43;3.80;99.90
18043;DHT22;9146;48.074;11.968;2022-11-15T03:14:21;3.80;99.90
18043;DHT22;9146;48.074;11.968;2022-11-15T03:16:54;3.70;99.90
18043;DHT22;9146;48.074;11.968;2022-11-15T03:19:29;3.70;99.90
18043;DHT22;9146;48.074;11.968;2022-11-15T03:22:00;3.70;99.90
18043;DHT22;9146;48.074;11.968;2022-11-15T03:24:30;3.60;99.90
18043;DHT22;9146;48.074;11.968;2022-11-15T03:26:59;3.60;99.90
18043;DHT22;9146;48.074;11.968;2022-11-15T03:29:31;3.50;99.90
18043;DHT22;9146;48.074;11.968;2022-11-15T03:32:02;3.40;99.90
18043;DHT22;9146;48.074;11.968;2022-11-15T03:34:34;3.30;99.90
18043;DHT22;9146;48.074;11.968;2022-11-15T03:37:02;3.20;99.90
18043;DHT22;9146;48.074;11.968;2022-11-15T03:39:30;3.10;99.90
18043;DHT22;9146;48.074;11.968;2022-11-15T03:42:07;3.00;99.90
18043;DHT22;9146;48.074;11.968;2022-11-15T03:44:41;2.90;99.90
18043;DHT22;9146;48.074;11.968;2022-11-15T03:47:17;2.90;99.90
18043;DHT22;9146;48.074;11.968;2022-11-15T03:49:50;2.80;99.90
18043;DHT22;9146;48.074;11.968;2022-11-15T03:52:19;2.70;99.90
18043;DHT22;9146;48.074;11.968;2022-11-15T03:54:49;2.60;99.90
18043;DHT22;9146;48.074;11.968;2022-11-15T03:57:16;2.60;99.90
18043;DHT22;9146;48.074;11.968;2022-11-15T03:59:43;2.60;99.90
18043;DHT22;9146;48.074;11.968;2022-11-15T04:02:11;2.60;99.90
18043;DHT22;9146;48.074;11.968;2022-11-15T04:04:38;2.60;99.90
18043;DHT22;9146;48.074;11.968;2022-11-15T04:07:06;2.50;99.90
18043;DHT22;9146;48.074;11.968;2022-11-15T04:09:33;2.50;99.90
18043;DHT22;9146;48.074;11.968;2022-11-15T04:12:20;2.40;99.90
18043;DHT22;9146;48.074;11.968;2022-11-15T04:14:56;2.40;99.90
18043;DHT22;9146;48.074;11.968;2022-11-15T04:17:34;2.40;99.90
18043;DHT22;9146;48.074;11.968;2022-11-15T04:20:02;2.40;99.90
18043;DHT22;9146;48.074;11.968;2022-11-15T04:22:47;2.30;99.90
18043;DHT22;9146;48.074;11.968;2022-11-15T04:25:32;2.30;99.90
18043;DHT22;9146;48.074;11.968;2022-11-15T04:27:59;2.30;99.90
18043;DHT22;9146;48.074;11.968;2022-11-15T04:30:28;2.20;99.90
18043;DHT22;9146;48.074;11.968;2022-11-15T04:32:55;2.20;99.90
18043;DHT22;9146;48.074;11.968;2022-11-15T04:35:22;2.20;99.90
18043;DHT22;9146;48.074;11.968;2022-11-15T04:37:50;2.10;99.90
18043;DHT22;9146;48.074;11.968;2022-11-15T04:40:16;2.10;99.90
18043;DHT22;9146;48.074;11.968;2022-11-15T04:42:43;2.10;99.90
18043;DHT22;9146;48.074;11.968;2022-11-15T04:45:10;2.10;99.90
18043;DHT22;9146;48.074;11.968;2022-11-15T04:47:37;2.00;99.90
18043;DHT22;9146;48.074;11.968;2022-11-15T04:50:05;2.00;99.90
18043;DHT22;9146;48.074;11.968;2022-11-15T04:52:35;2.00;99.90
18043;DHT22;9146;48.074;11.968;2022-11-15T04:55:03;2.00;99.90
18043;DHT22;9146;48.074;11.968;2022-11-15T04:57:30;1.90;99.90
18043;DHT22;9146;48.074;11.968;2022-11-15T04:59:57;1.90;99.90
18043;DHT22;9146;48.074;11.968;2022-11-15T05:02:24;1.90;99.90
18043;DHT22;9146;48.074;11.968;2022-11-15T05:05:11;1.90;99.90
18043;DHT22;9146;48.074;11.968;2022-11-15T05:07:37;1.80;99.90
18043;DHT22;9146;48.074;11.968;2022-11-15T05:10:06;1.80;99.90
18043;DHT22;9146;48.074;11.968;2022-11-15T05:12:33;1.80;99.90
18043;DHT22;9146;48.074;11.968;2022-11-15T05:15:00;1.80;99.90
18043;DHT22;9146;48.074;11.968;2022-11-15T05:17:27;1.80;99.90
18043;DHT22;9146;48.074;11.968;2022-11-15T05:19:53;1.70;99.90
18043;DHT22;9146;48.074;11.968;2022-11-15T05:22:21;1.80;99.90
18043;DHT22;9146;48.074;11.968;2022-11-15T05:24:48;1.80;99.90
18043;DHT22;9146;48.074;11.968;2022-11-15T05:27:17;1.80;99.90
18043;DHT22;9146;48.074;11.968;2022-11-15T05:29:44;1.90;99.90
18043;DHT22;9146;48.074;11.968;2022-11-15T05:32:12;1.90;99.90
18043;DHT22;9146;48.074;11.968;2022-11-15T05:34:39;1.90;99.90
18043;DHT22;9146;48.074;11.968;2022-11-15T05:37:06;1.90;99.90
18043;DHT22;9146;48.074;11.968;2022-11-15T05:39:33;2.00;99.90
18043;DHT22;9146;48.074;11.968;2022-11-15T05:42:04;1.90;99.90
18043;DHT22;9146;48.074;11.968;2022-11-15T05:44:34;1.90;99.90
18043;DHT22;9146;48.074;11.968;2022-11-15T05:47:03;2.00;99.90
18043;DHT22;9146;48.074;11.968;2022-11-15T05:49:33;2.00;99.90
18043;DHT22;9146;48.074;11.968;2022-11-15T05:52:03;2.00;99.90
18043;DHT22;9146;48.074;11.968;2022-11-15T05:54:32;2.00;99.90
18043;DHT22;9146;48.074;11.968;2022-11-15T05:56:59;2.10;99.90
18043;DHT22;9146;48.074;11.968;2022-11-15T05:59:28;2.10;99.90
18043;DHT22;9146;48.074;11.968;2022-11-15T06:01:57;2.10;99.90
18043;DHT22;9146;48.074;11.968;2022-11-15T06:04:24;2.10;99.90
18043;DHT22;9146;48.074;11.968;2022-11-15T06:06:51;2.10;99.90
18043;DHT22;9146;48.074;11.968;2022-11-15T06:09:18;2.10;99.90
18043;DHT22;9146;48.074;11.968;2022-11-15T06:11:45;2.10;99.90
18043;DHT22;9146;48.074;11.968;2022-11-15T06:14:12;2.10;99.90
18043;DHT22;9146;48.074;11.968;2022-11-15T06:16:39;2.10;99.90
18043;DHT22;9146;48.074;11.968;2022-11-15T06:19:07;2.10;99.90
18043;DHT22;9146;48.074;11.968;2022-11-15T06:21:34;2.00;99.90
18043;DHT22;9146;48.074;11.968;2022-11-15T06:24:01;2.00;99.90
18043;DHT22;9146;48.074;11.968;2022-11-15T06:26:28;2.00;99.90
18043;DHT22;9146;48.074;11.968;2022-11-15T06:28:55;1.90;99.90
18043;DHT22;9146;48.074;11.968;2022-11-15T06:31:21;1.90;99.90
18043;DHT22;9146;48.074;11.968;2022-11-15T06:33:48;1.90;99.90
18043;DHT22;9146;48.074;11.968;2022-11-15T06:36:17;2.00;99.90
18043;DHT22;9146;48.074;11.968;2022-11-15T06:38:44;1.90;99.90
18043;DHT22;9146;48.074;11.968;2022-11-15T06:41:13;1.90;99.90
18043;DHT22;9146;48.074;11.968;2022-11-15T06:43:40;2.00;99.90
18043;DHT22;9146;48.074;11.968;2022-11-15T06:46:07;2.00;99.90
18043;DHT22;9146;48.074;11.968;2022-11-15T06:48:35;2.00;99.90
18043;DHT22;9146;48.074;11.968;2022-11-15T06:51:03;2.10;99.90
18043;DHT22;9146;48.074;11.968;2022-11-15T06:53:32;2.10;99.90
18043;DHT22;9146;48.074;11.968;2022-11-15T06:56:00;2.10;99.90
18043;DHT22;9146;48.074;11.968;2022-11-15T06:58:27;2.20;99.90
18043;DHT22;9146;48.074;11.968;2022-11-15T07:00:58;2.20;99.90
18043;DHT22;9146;48.074;11.968;2022-11-15T07:03:25;2.20;99.90
18043;DHT22;9146;48.074;11.968;2022-11-15T07:05:53;2.30;99.90
18043;DHT22;9146;48.074;11.968;2022-11-15T07:08:20;2.30;99.90
18043;DHT22;9146;48.074;11.968;2022-11-15T07:10:48;2.30;99.90
18043;DHT22;9146;48.074;11.968;2022-11-15T07:13:15;2.40;99.90
18043;DHT22;9146;48.074;11.968;2022-11-15T07:15:42;2.60;99.90
18043;DHT22;9146;48.074;11.968;2022-11-15T07:18:09;2.70;99.90
18043;DHT22;9146;48.074;11.968;2022-11-15T07:20:36;2.80;99.90
18043;DHT22;9146;48.074;11.968;2022-11-15T07:23:03;2.80;99.90
18043;DHT22;9146;48.074;11.968;2022-11-15T07:25:31;2.90;99.90
18043;DHT22;9146;48.074;11.968;2022-11-15T07:28:00;3.00;99.90
18043;DHT22;9146;48.074;11.968;2022-11-15T07:30:28;3.00;99.90
18043;DHT22;9146;48.074;11.968;2022-11-15T07:32:56;3.10;99.90
18043;DHT22;9146;48.074;11.968;2022-11-15T07:35:24;3.20;99.90
18043;DHT22;9146;48.074;11.968;2022-11-15T07:37:55;3.20;99.90
18043;DHT22;9146;48.074;11.968;2022-11-15T07:40:23;3.30;99.90
18043;DHT22;9146;48.074;11.968;2022-11-15T07:42:50;3.40;99.90
18043;DHT22;9146;48.074;11.968;2022-11-15T07:45:23;3.40;99.90
18043;DHT22;9146;48.074;11.968;2022-11-15T07:47:51;3.50;99.90
18043;DHT22;9146;48.074;11.968;2022-11-15T07:50:18;3.60;99.90
18043;DHT22;9146;48.074;11.968;2022-11-15T07:52:45;3.70;99.90
18043;DHT22;9146;48.074;11.968;2022-11-15T07:55:13;3.70;99.90
18043;DHT22;9146;48.074;11.968;2022-11-15T07:57:40;3.80;99.90
18043;DHT22;9146;48.074;11.968;2022-11-15T08:00:08;3.80;99.90
18043;DHT22;9146;48.074;11.968;2022-11-15T08:02:36;3.80;99.90
18043;DHT22;9146;48.074;11.968;2022-11-15T08:05:04;3.90;99.90
18043;DHT22;9146;48.074;11.968;2022-11-15T08:07:31;3.90;99.90
18043;DHT22;9146;48.074;11.968;2022-11-15T08:09:58;4.00;99.90
18043;DHT22;9146;48.074;11.968;2022-11-15T08:12:26;4.00;99.90
18043;DHT22;9146;48.074;11.968;2022-11-15T08:14:54;4.00;99.90
18043;DHT22;9146;48.074;11.968;2022-11-15T08:17:21;4.10;99.90
18043;DHT22;9146;48.074;11.968;2022-11-15T08:19:50;4.10;99.90
18043;DHT22;9146;48.074;11.968;2022-11-15T08:22:17;4.10;99.90
18043;DHT22;9146;48.074;11.968;2022-11-15T08:24:44;4.20;99.90
18043;DHT22;9146;48.074;11.968;2022-11-15T08:27:11;4.20;99.90
18043;DHT22;9146;48.074;11.968;2022-11-15T08:29:42;4.30;99.90
18043;DHT22;9146;48.074;11.968;2022-11-15T08:32:09;4.40;99.90
18043;DHT22;9146;48.074;11.968;2022-11-15T08:34:37;4.40;99.90
18043;DHT22;9146;48.074;11.968;2022-11-15T08:37:05;4.50;99.90
18043;DHT22;9146;48.074;11.968;2022-11-15T08:39:32;4.50;99.90
18043;DHT22;9146;48.074;11.968;2022-11-15T08:41:59;4.60;99.90
18043;DHT22;9146;48.074;11.968;2022-11-15T08:44:26;4.70;99.90
18043;DHT22;9146;48.074;11.968;2022-11-15T08:46:53;4.70;99.90
18043;DHT22;9146;48.074;11.968;2022-11-15T08:49:21;4.90;99.90
18043;DHT22;9146;48.074;11.968;2022-11-15T08:51:47;5.10;99.90
18043;DHT22;9146;48.074;11.968;2022-11-15T08:54:16;5.20;99.90
18043;DHT22;9146;48.074;11.968;2022-11-15T08:56:43;5.40;99.90
18043;DHT22;9146;48.074;11.968;2022-11-15T08:59:10;5.50;99.90
18043;DHT22;9146;48.074;11.968;2022-11-15T09:01:37;5.60;99.90
18043;DHT22;9146;48.074;11.968;2022-11-15T09:04:04;5.70;99.90
18043;DHT22;9146;48.074;11.968;2022-11-15T09:06:31;5.80;99.90
18043;DHT22;9146;48.074;11.968;2022-11-15T09:08:57;5.80;99.90
18043;DHT22;9146;48.074;11.968;2022-11-15T09:11:26;5.90;99.90
18043;DHT22;9146;48.074;11.968;2022-11-15T09:13:53;6.00;99.90
18043;DHT22;9146;48.074;11.968;2022-11-15T09:16:19;6.00;99.90
18043;DHT22;9146;48.074;11.968;2022-11-15T09:18:46;6.10;99.90
18043;DHT22;9146;48.074;11.968;2022-11-15T09:21:13;6.10;99.90
18043;DHT22;9146;48.074;11.968;2022-11-15T09:23:40;6.10;99.90
18043;DHT22;9146;48.074;11.968;2022-11-15T09:26:07;6.20;99.90
18043;DHT22;9146;48.074;11.968;2022-11-15T09:28:36;6.20;99.90
18043;DHT22;9146;48.074;11.968;2022-11-15T09:31:05;6.30;99.90
18043;DHT22;9146;48.074;11.968;2022-11-15T09:33:32;6.40;99.90
18043;DHT22;9146;48.074;11.968;2022-11-15T09:36:00;6.40;99.90
18043;DHT22;9146;48.074;11.968;2022-11-15T09:38:28;6.40;99.90
18043;DHT22;9146;48.074;11.968;2022-11-15T09:41:08;6.40;99.90
18043;DHT22;9146;48.074;11.968;2022-11-15T09:43:47;6.40;99.90
18043;DHT22;9146;48.074;11.968;2022-11-15T09:46:21;6.50;99.90
18043;DHT22;9146;48.074;11.968;2022-11-15T09:48:52;6.60;99.90
18043;DHT22;9146;48.074;11.968;2022-11-15T09:51:28;6.60;99.90
18043;DHT22;9146;48.074;11.968;2022-11-15T09:54:11;6.70;99.90
18043;DHT22;9146;48.074;11.968;2022-11-15T09:56:41;6.80;99.90
18043;DHT22;9146;48.074;11.968;2022-11-15T09:59:30;6.80;99.90
18043;DHT22;9146;48.074;11.968;2022-11-15T10:02:09;6.80;99.90
18043;DHT22;9146;48.074;11.968;2022-11-15T10:04:41;6.80;99.90
18043;DHT22;9146;48.074;11.968;2022-11-15T10:07:14;6.90;99.90
18043;DHT22;9146;48.074;11.968;2022-11-15T10:09:47;6.90;99.90
18043;DHT22;9146;48.074;11.968;2022-11-15T10:12:15;7.00;99.90
18043;DHT22;9146;48.074;11.968;2022-11-15T10:14:46;7.00;99.90
18043;DHT22;9146;48.074;11.968;2022-11-15T10:17:39;7.10;99.90
18043;DHT22;9146;48.074;11.968;2022-11-15T10:20:14;7.10;99.90
18043;DHT22;9146;48.074;11.968;2022-11-15T10:22:46;7.20;99.90
18043;DHT22;9146;48.074;11.968;2022-11-15T10:25:21;7.20;99.90
18043;DHT22;9146;48.074;11.968;2022-11-15T10:27:54;7.30;99.90
18043;DHT22;9146;48.074;11.968;2022-11-15T10:30:28;7.40;99.90
18043;DHT22;9146;48.074;11.968;2022-11-15T10:32:56;7.50;99.90
18043;DHT22;9146;48.074;11.968;2022-11-15T10:35:25;7.50;99.90
18043;DHT22;9146;48.074;11.968;2022-11-15T10:38:04;7.60;99.90
18043;DHT22;9146;48.074;11.968;2022-11-15T10:40:31;7.70;99.90
18043;DHT22;9146;48.074;11.968;2022-11-15T10:43:06;7.70;99.90
18043;DHT22;9146;48.074;11.968;2022-11-15T10:45:39;7.80;99.90
18043;DHT22;9146;48.074;11.968;2022-11-15T10:48:25;7.90;99.90
18043;DHT22;9146;48.074;11.968;2022-11-15T10:50:53;7.90;99.90
18043;DHT22;9146;48.074;11.968;2022-11-15T10:53:28;7.90;99.90
18043;DHT22;9146;48.074;11.968;2022-11-15T10:55:59;8.00;99.90
18043;DHT22;9146;48.074;11.968;2022-11-15T10:58:36;8.10;99.90
18043;DHT22;9146;48.074;11.968;2022-11-15T11:01:16;8.20;99.90
18043;DHT22;9146;48.074;11.968;2022-11-15T11:03:44;8.30;99.90
18043;DHT22;9146;48.074;11.968;2022-11-15T11:06:13;8.30;99.90
18043;DHT22;9146;48.074;11.968;2022-11-15T11:08:54;8.40;99.90
18043;DHT22;9146;48.074;11.968;2022-11-15T11:11:22;8.50;99.90
18043;DHT22;9146;48.074;11.968;2022-11-15T11:13:49;8.60;99.90
18043;DHT22;9146;48.074;11.968;2022-11-15T11:16:28;8.60;99.90
18043;DHT22;9146;48.074;11.968;2022-11-15T11:19:08;8.70;99.90
18043;DHT22;9146;48.074;11.968;2022-11-15T11:21:43;8.80;99.90
18043;DHT22;9146;48.074;11.968;2022-11-15T11:24:19;8.80;99.90
18043;DHT22;9146;48.074;11.968;2022-11-15T11:27:01;8.90;99.90
18043;DHT22;9146;48.074;11.968;2022-11-15T11:29:41;9.00;99.90
18043;DHT22;9146;48.074;11.968;2022-11-15T11:32:26;9.00;99.90
18043;DHT22;9146;48.074;11.968;2022-11-15T11:35:01;9.10;99.90
18043;DHT22;9146;48.074;11.968;2022-11-15T11:37:35;9.10;99.90
18043;DHT22;9146;48.074;11.968;2022-11-15T11:40:20;9.20;99.90
18043;DHT22;9146;48.074;11.968;2022-11-15T11:42:54;9.30;99.90
18043;DHT22;9146;48.074;11.968;2022-11-15T11:45:58;9.40;99.90
18043;DHT22;9146;48.074;11.968;2022-11-15T11:48:40;9.40;99.90
18043;DHT22;9146;48.074;11.968;2022-11-15T11:51:15;9.50;99.90
18043;DHT22;9146;48.074;11.968;2022-11-15T11:53:47;9.50;99.90
18043;DHT22;9146;48.074;11.968;2022-11-15T11:56:23;9.60;99.90
18043;DHT22;9146;48.074;11.968;2022-11-15T11:58:54;9.70;99.90
18043;DHT22;9146;48.074;11.968;2022-11-15T12:01:24;9.70;99.90
18043;DHT22;9146;48.074;11.968;2022-11-15T12:04:01;9.70;99.90
18043;DHT22;9146;48.074;11.968;2022-11-15T12:06:33;9.70;99.90
18043;DHT22;9146;48.074;11.968;2022-11-15T12:09:19;9.80;99.90
18043;DHT22;9146;48.074;11.968;2022-11-15T12:11:53;9.80;99.90
18043;DHT22;9146;48.074;11.968;2022-11-15T12:14:27;9.90;99.90
18043;DHT22;9146;48.074;11.968;2022-11-15T12:16:57;9.90;99.90
18043;DHT22;9146;48.074;11.968;2022-11-15T12:19:26;10.00;99.90
18043;DHT22;9146;48.074;11.968;2022-11-15T12:21:59;10.00;99.90
18043;DHT22;9146;48.074;11.968;2022-11-15T12:24:29;10.00;99.90
18043;DHT22;9146;48.074;11.968;2022-11-15T12:26:59;10.00;99.90
18043;DHT22;9146;48.074;11.968;2022-11-15T12:29:33;10.00;99.90
18043;DHT22;9146;48.074;11.968;2022-11-15T12:32:02;10.00;99.90
18043;DHT22;9146;48.074;11.968;2022-11-15T12:34:44;10.00;99.90
18043;DHT22;9146;48.074;11.968;2022-11-15T12:37:44;10.10;99.90
18043;DHT22;9146;48.074;11.968;2022-11-15T12:40:20;10.20;99.90
18043;DHT22;9146;48.074;11.968;2022-11-15T12:45:52;10.20;99.90
18043;DHT22;9146;48.074;11.968;2022-11-15T12:54:52;10.20;99.90
18043;DHT22;9146;48.074;11.968;2022-11-15T12:57:38;10.30;99.90
18043;DHT22;9146;48.074;11.968;2022-11-15T13:03:19;10.40;99.90
18043;DHT22;9146;48.074;11.968;2022-11-15T13:06:00;10.40;99.90
18043;DHT22;9146;48.074;11.968;2022-11-15T13:08:56;10.40;99.90
18043;DHT22;9146;48.074;11.968;2022-11-15T13:11:49;10.40;99.90
18043;DHT22;9146;48.074;11.968;2022-11-15T13:14:45;10.30;99.90
18043;DHT22;9146;48.074;11.968;2022-11-15T13:20:27;10.40;99.90
18043;DHT22;9146;48.074;11.968;2022-11-15T13:23:01;10.40;99.90
18043;DHT22;9146;48.074;11.968;2022-11-15T13:25:55;10.50;99.90
18043;DHT22;9146;48.074;11.968;2022-11-15T13:28:30;10.50;99.90
18043;DHT22;9146;48.074;11.968;2022-11-15T13:31:00;10.60;99.90
18043;DHT22;9146;48.074;11.968;2022-11-15T13:33:31;10.60;99.90
18043;DHT22;9146;48.074;11.968;2022-11-15T13:36:01;10.60;99.90
18043;DHT22;9146;48.074;11.968;2022-11-15T13:38:30;10.60;99.90
18043;DHT22;9146;48.074;11.968;2022-11-15T13:41:09;10.50;99.90
18043;DHT22;9146;48.074;11.968;2022-11-15T13:43:37;10.50;99.90
18043;DHT22;9146;48.074;11.968;2022-11-15T13:46:06;10.50;99.90
18043;DHT22;9146;48.074;11.968;2022-11-15T13:48:34;10.50;99.90
18043;DHT22;9146;48.074;11.968;2022-11-15T13:51:02;10.60;99.90
18043;DHT22;9146;48.074;11.968;2022-11-15T13:53:31;10.60;99.90
18043;DHT22;9146;48.074;11.968;2022-11-15T13:56:01;10.60;99.90
18043;DHT22;9146;48.074;11.968;2022-11-15T13:58:29;10.60;99.90
18043;DHT22;9146;48.074;11.968;2022-11-15T14:01:01;10.60;99.90
18043;DHT22;9146;48.074;11.968;2022-11-15T14:03:30;10.50;99.90
18043;DHT22;9146;48.074;11.968;2022-11-15T14:06:09;10.50;99.90
18043;DHT22;9146;48.074;11.968;2022-11-15T14:08:38;10.50;99.90
18043;DHT22;9146;48.074;11.968;2022-11-15T14:11:09;10.50;99.90
18043;DHT22;9146;48.074;11.968;2022-11-15T14:13:38;10.50;99.90
18043;DHT22;9146;48.074;11.968;2022-11-15T14:16:16;10.50;99.90
18043;DHT22;9146;48.074;11.968;2022-11-15T14:18:45;10.50;99.90
18043;DHT22;9146;48.074;11.968;2022-11-15T14:21:12;10.40;99.90
18043;DHT22;9146;48.074;11.968;2022-11-15T14:23:39;10.40;99.90
18043;DHT22;9146;48.074;11.968;2022-11-15T14:26:26;10.40;99.90
18043;DHT22;9146;48.074;11.968;2022-11-15T14:28:54;10.30;99.90
18043;DHT22;9146;48.074;11.968;2022-11-15T14:31:21;10.20;99.90
18043;DHT22;9146;48.074;11.968;2022-11-15T14:33:48;10.10;99.90
18043;DHT22;9146;48.074;11.968;2022-11-15T14:36:16;10.00;99.90
18043;DHT22;9146;48.074;11.968;2022-11-15T14:38:44;10.00;99.90
18043;DHT22;9146;48.074;11.968;2022-11-15T14:41:18;9.90;99.90
18043;DHT22;9146;48.074;11.968;2022-11-15T14:43:46;9.80;99.90
18043;DHT22;9146;48.074;11.968;2022-11-15T14:46:14;9.80;99.90
18043;DHT22;9146;48.074;11.968;2022-11-15T14:48:40;9.70;99.90
18043;DHT22;9146;48.074;11.968;2022-11-15T14:51:12;9.60;99.90
18043;DHT22;9146;48.074;11.968;2022-11-15T14:53:40;9.60;99.90
18043;DHT22;9146;48.074;11.968;2022-11-15T14:56:08;9.50;99.90
18043;DHT22;9146;48.074;11.968;2022-11-15T14:58:36;9.40;99.90
18043;DHT22;9146;48.074;11.968;2022-11-15T15:01:11;9.30;99.90
18043;DHT22;9146;48.074;11.968;2022-11-15T15:03:39;9.20;99.90
18043;DHT22;9146;48.074;11.968;2022-11-15T15:06:05;9.20;99.90
18043;DHT22;9146;48.074;11.968;2022-11-15T15:08:34;9.10;99.90
18043;DHT22;9146;48.074;11.968;2022-11-15T15:11:01;9.00;99.90
18043;DHT22;9146;48.074;11.968;2022-11-15T15:13:28;8.90;99.90
18043;DHT22;9146;48.074;11.968;2022-11-15T15:15:57;8.80;99.90
18043;DHT22;9146;48.074;11.968;2022-11-15T15:18:24;8.70;99.90
18043;DHT22;9146;48.074;11.968;2022-11-15T15:20:55;8.70;99.90
18043;DHT22;9146;48.074;11.968;2022-11-15T15:23:25;8.60;99.90
18043;DHT22;9146;48.074;11.968;2022-11-15T15:25:54;8.50;99.90
18043;DHT22;9146;48.074;11.968;2022-11-15T15:28:21;8.50;99.90
18043;DHT22;9146;48.074;11.968;2022-11-15T15:30:48;8.50;99.90
18043;DHT22;9146;48.074;11.968;2022-11-15T15:33:17;8.60;99.90
18043;DHT22;9146;48.074;11.968;2022-11-15T15:35:44;8.60;99.90
18043;DHT22;9146;48.074;11.968;2022-11-15T15:38:12;8.60;99.90
18043;DHT22;9146;48.074;11.968;2022-11-15T15:40:39;8.60;99.90
18043;DHT22;9146;48.074;11.968;2022-11-15T15:43:05;8.60;99.90
18043;DHT22;9146;48.074;11.968;2022-11-15T15:45:36;8.50;99.90
18043;DHT22;9146;48.074;11.968;2022-11-15T15:48:03;8.50;99.90
18043;DHT22;9146;48.074;11.968;2022-11-15T15:50:34;8.40;99.90
18043;DHT22;9146;48.074;11.968;2022-11-15T15:53:03;8.30;99.90
18043;DHT22;9146;48.074;11.968;2022-11-15T15:55:31;8.20;99.90
18043;DHT22;9146;48.074;11.968;2022-11-15T15:57:58;8.10;99.90
18043;DHT22;9146;48.074;11.968;2022-11-15T16:00:25;7.90;99.90
18043;DHT22;9146;48.074;11.968;2022-11-15T16:02:52;7.80;99.90
18043;DHT22;9146;48.074;11.968;2022-11-15T16:05:20;7.70;99.90
18043;DHT22;9146;48.074;11.968;2022-11-15T16:07:48;7.60;99.90
18043;DHT22;9146;48.074;11.968;2022-11-15T16:10:21;7.60;99.90
18043;DHT22;9146;48.074;11.968;2022-11-15T16:12:50;7.50;99.90
18043;DHT22;9146;48.074;11.968;2022-11-15T16:15:18;7.50;99.90
18043;DHT22;9146;48.074;11.968;2022-11-15T16:17:48;7.40;99.90
18043;DHT22;9146;48.074;11.968;2022-11-15T16:20:24;7.40;99.90
18043;DHT22;9146;48.074;11.968;2022-11-15T16:22:54;7.30;99.90
18043;DHT22;9146;48.074;11.968;2022-11-15T16:25:21;7.20;99.90
18043;DHT22;9146;48.074;11.968;2022-11-15T16:27:49;7.20;99.90